Renfrew, Pennsylvania
Current Conditions -  °F | °C
As of 4:15 AM on Wednesday 28 Jan 2015 (Local Time) from KBTP Reporting Station
Scattered Clouds Scattered Clouds  
Wind Chill: 12°   Ceiling: Unl
Heat Index: 12°   Visibility: 8mi
Dew Point:   Wind: 3mph
Humidity: 85%   Direction: 260°W
Pressure: 30.19"   Gusts: NA
Location:  40.81°N, 79.96°W
Report Text: KBTP 280915Z AUTO 26003KT 8SM SCT015 M11/M13 A3019 RMK AO1
Loading
Personal Weather Stations






























Interactive Weather Map New forecast layout! Learn more

10-Day Weather Forecast

Advertisements
Track Severe Weather on mobile